Time;durP1;ratioP1;P1;durP2;ratioP2;P2;SDS_P1;SDS_P2;PMS_P1;PMS_P2;Temp;Humidity;BMP_temperature;BMP_pressure;BME280_temperature;BME280_humidity;BME280_pressure;Samples;Min_cycle;Max_cycle;Signal;HPM_P1;HPM_P2
2021/10/01 00:02:13;;;;;;;4.95;2.78;;;;;;;;;;5005204;28;20026;-86
2021/10/01 00:05:00;;;;;;;5.55;3.00;;;;;;;;;;5008136;28;20044;-86
2021/10/01 00:07:45;;;;;;;4.28;2.78;;;;;;;;;;5006711;28;20061;-85
2021/10/01 00:10:30;;;;;;;6.32;2.40;;;;;;;;;;5021711;28;20037;-85
2021/10/01 00:13:16;;;;;;;4.82;2.58;;;;;;;;;;5007237;28;20049;-85
2021/10/01 00:16:01;;;;;;;4.88;2.38;;;;;;;;;;5022062;28;20030;-85
2021/10/01 00:18:46;;;;;;;4.95;2.50;;;;;;;;;;5003621;28;20025;-85
2021/10/01 00:21:31;;;;;;;3.35;2.15;;;;;;;;;;5021905;28;20009;-84
2021/10/01 00:24:17;;;;;;;5.72;2.85;;;;;;;;;;5020395;28;20026;-86
2021/10/01 00:27:02;;;;;;;4.63;2.35;;;;;;;;;;5005945;28;20073;-86
2021/10/01 00:29:48;;;;;;;4.68;2.55;;;;;;;;;;5013057;28;20033;-86
2021/10/01 00:32:34;;;;;;;5.53;2.45;;;;;;;;;;5006992;28;20026;-86
2021/10/01 00:35:19;;;;;;;7.82;2.60;;;;;;;;;;5005732;28;20026;-87
2021/10/01 00:38:05;;;;;;;5.28;2.20;;;;;;;;;;5008203;28;20105;-86
2021/10/01 00:40:50;;;;;;;4.43;2.05;;;;;;;;;;5008161;28;20021;-85
2021/10/01 00:43:35;;;;;;;4.93;2.20;;;;;;;;;;4989329;28;20018;-85
2021/10/01 00:46:20;;;;;;;8.50;2.95;;;;;;;;;;5004651;28;20029;-84
2021/10/01 00:49:06;;;;;;;3.95;2.10;;;;;;;;;;4991693;28;20069;-85
2021/10/01 00:51:52;;;;;;;4.10;2.05;;;;;;;;;;5016688;28;20116;-85
2021/10/01 00:54:37;;;;;;;4.18;2.22;;;;;;;;;;5003075;28;20084;-86
2021/10/01 00:57:25;;;;;;;6.57;2.30;;;;;;;;;;5021220;28;20033;-85
2021/10/01 01:03:28;;;;;;;4.15;2.20;;;;;;;;;;4998608;28;20125;-85
2021/10/01 01:06:13;;;;;;;5.32;2.22;;;;;;;;;;5003729;28;20092;-85
2021/10/01 01:08:59;;;;;;;4.07;2.10;;;;;;;;;;5004877;28;20040;-84
2021/10/01 01:12:10;;;;;;;3.45;2.00;;;;;;;;;;5006173;28;20026;-84
2021/10/01 01:15:14;;;;;;;3.63;1.83;;;;;;;;;;4984435;28;20026;-84
2021/10/01 01:18:02;;;;;;;7.93;3.15;;;;;;;;;;5020792;28;20278;-84
2021/10/01 01:20:49;;;;;;;4.10;2.00;;;;;;;;;;5005808;28;20076;-83
2021/10/01 01:24:01;;;;;;;3.28;1.90;;;;;;;;;;5020488;28;20032;-83
2021/10/01 01:27:04;;;;;;;3.05;1.95;;;;;;;;;;4995394;28;20050;-83
2021/10/01 01:29:52;;;;;;;4.10;1.50;;;;;;;;;;5001969;28;20421;-84
2021/10/01 01:32:39;;;;;;;3.60;1.90;;;;;;;;;;5005947;28;20057;-84
2021/10/01 01:35:26;;;;;;;6.07;2.78;;;;;;;;;;5000077;28;20018;-83
2021/10/01 01:38:16;;;;;;;4.72;2.65;;;;;;;;;;5020658;28;20159;-84
2021/10/01 01:41:03;;;;;;;3.45;1.70;;;;;;;;;;5019622;28;20057;-83
2021/10/01 01:43:51;;;;;;;4.35;2.15;;;;;;;;;;5005902;28;20025;-83
2021/10/01 01:46:37;;;;;;;5.28;2.38;;;;;;;;;;4991966;28;20026;-85
2021/10/01 01:49:22;;;;;;;5.20;2.00;;;;;;;;;;5003507;28;20026;-84
2021/10/01 01:52:08;;;;;;;6.03;2.10;;;;;;;;;;5004181;28;20030;-85
2021/10/01 01:54:54;;;;;;;4.00;2.05;;;;;;;;;;5007002;28;20104;-85
2021/10/01 01:57:41;;;;;;;5.00;2.00;;;;;;;;;;4991670;28;20022;-86
2021/10/01 02:00:27;;;;;;;4.85;1.90;;;;;;;;;;5002541;28;20492;-86
2021/10/01 02:03:14;;;;;;;3.20;1.80;;;;;;;;;;5005419;28;20120;-85
2021/10/01 02:05:59;;;;;;;3.03;1.63;;;;;;;;;;5024567;28;20081;-86
2021/10/01 02:08:45;;;;;;;5.72;2.03;;;;;;;;;;4994842;28;20401;-84
2021/10/01 02:11:31;;;;;;;1.70;1.60;;;;;;;;;;5003128;28;20029;-85
2021/10/01 02:14:25;;;;;;;5.20;1.90;;;;;;;;;;5010469;28;20042;-84
2021/10/01 02:17:12;;;;;;;2.95;1.50;;;;;;;;;;5023340;28;20014;-86
2021/10/01 02:19:59;;;;;;;5.20;2.10;;;;;;;;;;5023652;28;20041;-84
2021/10/01 02:22:44;;;;;;;3.33;1.63;;;;;;;;;;5008199;28;20030;-86
2021/10/01 02:28:39;;;;;;;4.20;1.70;;;;;;;;;;5008472;28;20109;-86
2021/10/01 02:31:25;;;;;;;;;;;;;;;;;;5005785;28;20105;-86
2021/10/01 02:34:11;;;;;;;4.53;1.88;;;;;;;;;;5008381;28;19913;-86
2021/10/01 02:36:56;;;;;;;3.67;2.05;;;;;;;;;;5009823;28;20056;-84
2021/10/01 02:39:42;;;;;;;5.70;2.00;;;;;;;;;;5021914;28;20034;-86
2021/10/01 02:42:28;;;;;;;3.10;1.90;;;;;;;;;;5009297;28;20057;-85
2021/10/01 02:45:14;;;;;;;4.25;2.10;;;;;;;;;;5009120;28;20034;-85
2021/10/01 02:48:00;;;;;;;4.90;1.60;;;;;;;;;;5006208;28;20029;-84
2021/10/01 02:50:48;;;;;;;6.40;2.70;;;;;;;;;;4995354;28;20044;-84
2021/10/01 02:53:40;;;;;;;7.30;2.53;;;;;;;;;;5021856;28;20114;-85
2021/10/01 02:56:32;;;;;;;4.03;1.77;;;;;;;;;;5009523;28;20026;-83
2021/10/01 02:59:18;;;;;;;3.50;2.25;;;;;;;;;;5007965;28;20021;-84
2021/10/01 03:02:04;;;;;;;8.00;2.75;;;;;;;;;;5023106;28;20036;-85
2021/10/01 03:04:50;;;;;;;2.80;1.40;;;;;;;;;;5007300;28;20364;-85
2021/10/01 03:07:36;;;;;;;4.78;1.77;;;;;;;;;;5023202;28;20028;-84
2021/10/01 03:10:21;;;;;;;4.10;1.63;;;;;;;;;;4991929;28;20117;-85
2021/10/01 03:13:07;;;;;;;5.05;2.05;;;;;;;;;;5022677;28;20030;-85
2021/10/01 03:15:53;;;;;;;3.20;1.70;;;;;;;;;;5016660;28;20140;-85
2021/10/01 03:18:38;;;;;;;4.00;1.80;;;;;;;;;;5009091;28;20072;-85
2021/10/01 03:21:24;;;;;;;2.97;1.90;;;;;;;;;;5008077;28;20022;-85
2021/10/01 03:24:10;;;;;;;2.35;1.40;;;;;;;;;;4995430;28;20033;-84
2021/10/01 03:26:55;;;;;;;5.00;2.03;;;;;;;;;;5007502;28;20061;-83
2021/10/01 03:29:41;;;;;;;3.47;1.60;;;;;;;;;;5008739;28;20072;-83
2021/10/01 03:32:26;;;;;;;3.67;2.42;;;;;;;;;;5005535;28;20587;-83
2021/10/01 03:35:13;;;;;;;2.60;1.30;;;;;;;;;;4997392;28;20026;-85
2021/10/01 03:37:59;;;;;;;6.50;1.90;;;;;;;;;;5006338;28;20103;-85
2021/10/01 03:40:46;;;;;;;4.93;1.77;;;;;;;;;;5007342;28;20021;-85
2021/10/01 03:43:32;;;;;;;4.45;1.80;;;;;;;;;;5022597;28;20079;-85
2021/10/01 03:46:17;;;;;;;5.13;1.70;;;;;;;;;;5002029;28;20519;-85
2021/10/01 03:49:02;;;;;;;4.25;1.80;;;;;;;;;;5009082;28;20097;-85
2021/10/01 03:51:47;;;;;;;4.20;1.45;;;;;;;;;;4993532;28;20036;-84
2021/10/01 03:54:33;;;;;;;4.47;2.00;;;;;;;;;;5016899;28;20507;-84
2021/10/01 03:57:18;;;;;;;6.93;2.47;;;;;;;;;;5019392;28;20080;-85
2021/10/01 04:00:05;;;;;;;4.35;1.98;;;;;;;;;;5008364;28;20033;-84
2021/10/01 04:02:50;;;;;;;3.85;1.92;;;;;;;;;;5019930;28;20049;-85
2021/10/01 04:05:36;;;;;;;3.35;1.90;;;;;;;;;;5007935;28;20543;-85
2021/10/01 04:08:21;;;;;;;3.65;2.00;;;;;;;;;;5003155;28;20037;-86
2021/10/01 04:11:06;;;;;;;5.25;2.10;;;;;;;;;;5008586;28;20030;-86
2021/10/01 04:13:51;;;;;;;4.55;1.80;;;;;;;;;;5021399;28;20072;-85
2021/10/01 04:16:37;;;;;;;2.13;1.60;;;;;;;;;;5007257;28;20022;-85
2021/10/01 04:19:22;;;;;;;3.80;2.00;;;;;;;;;;5008025;28;20014;-85
2021/10/01 04:22:07;;;;;;;5.35;1.80;;;;;;;;;;5006190;28;20042;-86
2021/10/01 04:24:53;;;;;;;3.78;2.10;;;;;;;;;;5007721;28;20433;-86
2021/10/01 04:27:38;;;;;;;4.22;2.00;;;;;;;;;;5012949;28;20053;-85
2021/10/01 04:30:23;;;;;;;4.18;2.10;;;;;;;;;;5021999;28;20036;-83
2021/10/01 04:33:17;;;;;;;3.50;1.73;;;;;;;;;;4992463;28;20040;-85
2021/10/01 04:36:02;;;;;;;7.45;2.17;;;;;;;;;;5021618;28;20026;-85
2021/10/01 04:38:47;;;;;;;3.03;1.65;;;;;;;;;;5007211;28;20064;-85
2021/10/01 04:41:33;;;;;;;5.40;1.70;;;;;;;;;;5001689;28;20023;-85
2021/10/01 04:44:18;;;;;;;4.40;1.95;;;;;;;;;;5006433;28;20033;-84
2021/10/01 04:47:03;;;;;;;6.72;1.90;;;;;;;;;;5021626;28;20037;-84
2021/10/01 04:49:49;;;;;;;6.90;2.03;;;;;;;;;;5003582;28;20025;-84
2021/10/01 04:52:34;;;;;;;5.18;2.45;;;;;;;;;;5004926;28;20117;-85
2021/10/01 04:55:19;;;;;;;4.88;1.88;;;;;;;;;;5019766;28;20381;-86
2021/10/01 04:58:06;;;;;;;3.40;1.95;;;;;;;;;;5007591;28;20033;-84
2021/10/01 05:00:51;;;;;;;5.10;2.00;;;;;;;;;;5020989;28;20026;-84
2021/10/01 05:03:36;;;;;;;4.63;2.95;;;;;;;;;;4991470;28;20034;-85
2021/10/01 05:06:21;;;;;;;4.45;1.77;;;;;;;;;;5007348;28;20066;-86
2021/10/01 05:09:07;;;;;;;4.47;1.67;;;;;;;;;;5020301;28;20265;-86
2021/10/01 05:11:52;;;;;;;3.97;1.85;;;;;;;;;;5021101;28;20144;-86
2021/10/01 05:14:37;;;;;;;3.42;2.05;;;;;;;;;;4992931;28;20033;-85
2021/10/01 05:17:23;;;;;;;5.50;2.10;;;;;;;;;;5005778;28;20022;-84
2021/10/01 05:20:09;;;;;;;4.72;2.22;;;;;;;;;;5018047;28;20277;-84
2021/10/01 05:22:55;;;;;;;4.53;2.17;;;;;;;;;;5021009;28;20030;-84
2021/10/01 05:25:40;;;;;;;6.13;2.15;;;;;;;;;;5004628;28;20026;-85
2021/10/01 05:28:25;;;;;;;4.03;2.20;;;;;;;;;;5008569;28;20595;-87
2021/10/01 05:31:10;;;;;;;5.70;2.30;;;;;;;;;;5008038;28;20065;-86
2021/10/01 05:33:56;;;;;;;8.20;1.83;;;;;;;;;;5020429;28;20112;-87
2021/10/01 05:36:44;;;;;;;20.13;10.88;;;;;;;;;;5022271;28;20076;-83
2021/10/01 05:39:29;;;;;;;7.60;3.67;;;;;;;;;;5011322;28;20049;-85
2021/10/01 05:42:15;;;;;;;5.82;2.30;;;;;;;;;;5008595;28;20033;-89
2021/10/01 05:45:02;;;;;;;6.00;2.28;;;;;;;;;;5026181;28;20083;-86
2021/10/01 05:47:48;;;;;;;6.20;2.40;;;;;;;;;;5013971;28;20458;-85
2021/10/01 05:50:36;;;;;;;4.82;2.25;;;;;;;;;;5005755;28;20735;-90
2021/10/01 05:56:30;;;;;;;5.93;2.33;;;;;;;;;;5001343;28;20046;-86
2021/10/01 05:59:16;;;;;;;5.53;2.35;;;;;;;;;;5005704;28;20021;-84
2021/10/01 06:02:01;;;;;;;3.00;2.40;;;;;;;;;;5019418;28;20068;-89
2021/10/01 06:04:47;;;;;;;3.70;1.70;;;;;;;;;;5024319;28;20067;-90
2021/10/01 06:07:32;;;;;;;6.88;2.83;;;;;;;;;;4992561;28;20060;-90
2021/10/01 06:10:17;;;;;;;6.13;2.13;;;;;;;;;;5008080;28;20033;-89
2021/10/01 06:13:03;;;;;;;6.28;2.25;;;;;;;;;;5025037;28;20026;-89
2021/10/01 06:15:48;;;;;;;4.72;2.05;;;;;;;;;;4993778;28;20022;-85
2021/10/01 06:18:33;;;;;;;38.47;24.67;;;;;;;;;;5007558;28;20334;-88
2021/10/01 06:21:19;;;;;;;4.63;2.70;;;;;;;;;;5009571;28;20022;-88
2021/10/01 06:24:04;;;;;;;4.32;2.55;;;;;;;;;;5012742;28;20034;-89
2021/10/01 06:26:49;;;;;;;5.75;3.00;;;;;;;;;;4997135;28;20124;-89
2021/10/01 06:29:35;;;;;;;8.30;2.80;;;;;;;;;;4990574;28;20052;-88
2021/10/01 06:32:20;;;;;;;5.65;2.90;;;;;;;;;;5007842;28;20026;-84
2021/10/01 06:35:06;;;;;;;6.13;2.67;;;;;;;;;;5002751;28;20079;-85
2021/10/01 06:37:51;;;;;;;6.53;2.75;;;;;;;;;;5003849;28;20173;-85
2021/10/01 06:40:37;;;;;;;4.15;2.50;;;;;;;;;;4993417;28;20038;-84
2021/10/01 06:43:22;;;;;;;4.28;2.33;;;;;;;;;;5008851;28;20029;-84
2021/10/01 06:46:17;;;;;;;5.22;2.67;;;;;;;;;;5010636;28;20118;-83
2021/10/01 08:20:56;;;;;;;6.70;3.72;;;;;;;;;;4992409;28;20030;-85
2021/10/01 08:23:42;;;;;;;9.23;2.53;;;;;;;;;;5008141;28;20026;-83
2021/10/01 08:26:28;;;;;;;6.60;2.50;;;;;;;;;;5022096;28;20046;-85
2021/10/01 08:29:14;;;;;;;6.07;1.80;;;;;;;;;;5000071;28;20030;-86
2021/10/01 08:32:00;;;;;;;3.85;2.08;;;;;;;;;;5020814;28;20022;-83
2021/10/01 08:34:46;;;;;;;2.88;2.08;;;;;;;;;;5021866;28;20025;-88
2021/10/01 08:37:31;;;;;;;10.35;2.40;;;;;;;;;;5016292;28;20044;-87
2021/10/01 08:40:17;;;;;;;3.47;1.92;;;;;;;;;;5008933;28;20034;-84
2021/10/01 08:43:03;;;;;;;4.63;1.85;;;;;;;;;;5020198;28;20030;-84
2021/10/01 08:45:52;;;;;;;4.63;1.80;;;;;;;;;;4997890;28;20022;-79
2021/10/01 08:48:38;;;;;;;5.30;1.85;;;;;;;;;;5020888;28;20036;-78
2021/10/01 08:51:24;;;;;;;4.30;2.10;;;;;;;;;;4994548;28;20030;-79
2021/10/01 08:54:10;;;;;;;7.50;1.73;;;;;;;;;;5006366;28;20153;-79
2021/10/01 08:56:55;;;;;;;7.57;2.47;;;;;;;;;;5008044;28;20034;-82
2021/10/01 08:59:40;;;;;;;5.65;2.20;;;;;;;;;;5002644;28;20014;-82
2021/10/01 09:02:25;;;;;;;4.75;1.83;;;;;;;;;;5024043;28;20083;-88
2021/10/01 09:05:11;;;;;;;4.03;2.00;;;;;;;;;;5027109;28;20026;-90
2021/10/01 09:08:18;;;;;;;3.92;1.73;;;;;;;;;;5020314;28;20087;-88
2021/10/01 09:11:05;;;;;;;4.72;1.55;;;;;;;;;;5004340;28;20026;-87
2021/10/01 09:13:51;;;;;;;4.53;1.65;;;;;;;;;;5005774;28;20030;-90
2021/10/01 09:16:37;;;;;;;4.93;2.10;;;;;;;;;;5025243;28;20117;-85
2021/10/01 09:19:36;;;;;;;6.18;1.85;;;;;;;;;;4995643;28;20030;-86
2021/10/01 09:22:31;;;;;;;3.78;1.90;;;;;;;;;;5009734;28;20029;-84
2021/10/01 09:25:24;;;;;;;3.75;1.83;;;;;;;;;;5008994;28;20036;-83
2021/10/01 09:28:13;;;;;;;6.00;1.70;;;;;;;;;;5007876;28;20089;-85
2021/10/01 09:30:58;;;;;;;8.20;1.90;;;;;;;;;;5007783;28;20037;-84
2021/10/01 09:33:43;;;;;;;6.40;2.03;;;;;;;;;;5002843;28;20034;-85
2021/10/01 09:36:35;;;;;;;3.45;1.90;;;;;;;;;;5017542;28;20486;-91
2021/10/01 09:39:35;;;;;;;4.03;1.70;;;;;;;;;;5009062;28;20056;-87
2021/10/01 09:42:24;;;;;;;4.90;1.65;;;;;;;;;;5022986;28;20025;-87
2021/10/01 09:45:14;;;;;;;2.97;1.83;;;;;;;;;;5008964;28;20034;-86
2021/10/01 09:48:04;;;;;;;6.75;4.20;;;;;;;;;;5022874;28;20034;-86
2021/10/01 09:51:08;;;;;;;4.25;2.22;;;;;;;;;;5022599;28;20034;-89
2021/10/01 09:53:53;;;;;;;5.28;1.65;;;;;;;;;;5007995;28;20056;-83
2021/10/01 09:56:40;;;;;;;4.28;1.23;;;;;;;;;;5008176;28;20029;-87
2021/10/01 09:59:25;;;;;;;2.83;1.38;;;;;;;;;;5007101;28;20079;-89
2021/10/01 10:02:14;;;;;;;2.25;1.30;;;;;;;;;;5007329;28;20049;-84
2021/10/01 10:05:00;;;;;;;4.07;1.67;;;;;;;;;;4997533;28;20026;-85
2021/10/01 10:07:46;;;;;;;4.40;1.98;;;;;;;;;;5009956;28;20026;-85
2021/10/01 10:10:43;;;;;;;3.17;1.45;;;;;;;;;;5007465;28;20026;-85
2021/10/01 10:13:47;;;;;;;3.95;1.83;;;;;;;;;;5023331;28;20054;-87
2021/10/01 10:16:32;;;;;;;2.00;1.30;;;;;;;;;;5024460;28;20033;-87
2021/10/01 10:19:21;;;;;;;3.65;1.48;;;;;;;;;;4998156;28;20022;-90
2021/10/01 10:22:07;;;;;;;2.42;1.42;;;;;;;;;;5008387;28;20156;-89
2021/10/01 10:24:53;;;;;;;3.17;1.35;;;;;;;;;;5010933;28;20036;-89
2021/10/01 10:27:38;;;;;;;2.22;1.30;;;;;;;;;;5026023;28;20025;-89
2021/10/01 10:30:26;;;;;;;11.57;8.52;;;;;;;;;;5024771;28;20041;-86
2021/10/01 10:33:41;;;;;;;4.70;2.95;;;;;;;;;;5028359;28;20132;-87
2021/10/01 10:39:50;;;;;;;2.90;1.48;;;;;;;;;;5015612;28;20025;-86
2021/10/01 10:42:39;;;;;;;4.00;1.33;;;;;;;;;;5011145;28;20030;-91
2021/10/01 10:45:25;;;;;;;2.42;1.20;;;;;;;;;;5031658;28;20018;-91
2021/10/01 10:48:20;;;;;;;3.45;1.50;;;;;;;;;;5014065;28;20036;-90
2021/10/01 10:51:06;;;;;;;2.30;1.10;;;;;;;;;;5011795;28;20030;-91
2021/10/01 10:54:06;;;;;;;3.90;1.75;;;;;;;;;;5026383;28;20049;-91
2021/10/01 10:57:10;;;;;;;3.50;1.35;;;;;;;;;;5012474;28;20033;-90
2021/10/01 10:59:58;;;;;;;4.75;1.60;;;;;;;;;;5015663;28;20049;-88
2021/10/01 11:02:44;;;;;;;4.25;1.90;;;;;;;;;;5009102;28;20029;-88
2021/10/01 11:05:30;;;;;;;3.78;1.77;;;;;;;;;;4996172;28;20091;-86
2021/10/01 11:08:22;;;;;;;1.92;1.40;;;;;;;;;;5017272;28;20022;-84
2021/10/01 11:11:40;;;;;;;3.85;1.90;;;;;;;;;;5005842;28;20069;-89
2021/10/01 11:14:26;;;;;;;2.33;1.35;;;;;;;;;;4989365;28;20042;-83
2021/10/01 11:17:11;;;;;;;2.22;1.30;;;;;;;;;;5009642;28;20116;-85
2021/10/01 11:19:56;;;;;;;2.38;1.50;;;;;;;;;;5007415;28;20030;-83
2021/10/01 11:22:42;;;;;;;3.63;1.80;;;;;;;;;;5009639;28;20018;-84
2021/10/01 11:25:28;;;;;;;3.40;1.50;;;;;;;;;;5003725;28;20040;-81
2021/10/01 11:28:14;;;;;;;5.10;1.67;;;;;;;;;;4999835;28;20030;-80
2021/10/01 11:30:59;;;;;;;2.45;1.35;;;;;;;;;;5000025;28;20014;-80
2021/10/01 11:33:48;;;;;;;3.25;1.48;;;;;;;;;;5021695;28;20045;-81
2021/10/01 11:36:36;;;;;;;4.43;1.42;;;;;;;;;;5008544;28;20026;-82
2021/10/01 11:39:21;;;;;;;2.72;1.05;;;;;;;;;;5021015;28;20065;-83
2021/10/01 11:42:06;;;;;;;2.83;1.50;;;;;;;;;;5021932;28;20133;-82
2021/10/01 11:44:52;;;;;;;2.92;1.40;;;;;;;;;;5022207;28;20499;-85
2021/10/01 11:47:38;;;;;;;5.00;1.73;;;;;;;;;;4991097;28;20505;-91
2021/10/01 11:50:31;;;;;;;2.70;1.27;;;;;;;;;;5000485;28;20017;-90
2021/10/01 11:53:18;;;;;;;2.85;1.40;;;;;;;;;;5008105;28;20052;-86
2021/10/01 11:56:06;;;;;;;6.88;1.63;;;;;;;;;;5008596;28;20018;-88
2021/10/01 11:58:52;;;;;;;5.03;1.60;;;;;;;;;;5007184;28;20029;-85
2021/10/01 12:01:41;;;;;;;2.20;1.02;;;;;;;;;;5033574;28;20085;-92
2021/10/01 12:04:31;;;;;;;3.00;1.30;;;;;;;;;;5006439;28;20014;-90
2021/10/01 12:07:18;;;;;;;2.47;1.30;;;;;;;;;;5009907;28;20026;-91
2021/10/01 12:10:05;;;;;;;5.90;1.70;;;;;;;;;;5008978;28;20169;-88
2021/10/01 12:13:23;;;;;;;4.18;2.03;;;;;;;;;;5022216;28;20056;-90
2021/10/01 12:16:11;;;;;;;3.53;1.67;;;;;;;;;;4987357;28;20135;-82
2021/10/01 12:18:59;;;;;;;4.65;1.75;;;;;;;;;;5007372;28;20504;-84
2021/10/01 12:21:44;;;;;;;22.33;16.63;;;;;;;;;;5018195;28;20030;-84
2021/10/01 12:24:49;;;;;;;6.28;3.85;;;;;;;;;;5008298;28;20276;-91
2021/10/01 12:27:44;;;;;;;2.83;1.55;;;;;;;;;;5012816;28;20033;-87
2021/10/01 12:30:29;;;;;;;4.28;1.65;;;;;;;;;;4998609;28;20024;-84
2021/10/01 12:33:16;;;;;;;3.60;1.40;;;;;;;;;;5001806;28;20109;-88
2021/10/01 12:36:02;;;;;;;2.30;1.30;;;;;;;;;;5000607;28;20053;-86
2021/10/01 12:38:47;;;;;;;2.53;1.30;;;;;;;;;;5025056;28;20037;-91
2021/10/01 12:41:32;;;;;;;3.90;1.20;;;;;;;;;;5009085;28;20362;-86
2021/10/01 12:44:17;;;;;;;6.55;1.40;;;;;;;;;;4994851;28;20631;-86
2021/10/01 12:47:19;;;;;;;4.50;1.50;;;;;;;;;;5010962;28;20053;-88
2021/10/01 12:50:06;;;;;;;3.00;1.65;;;;;;;;;;5021990;28;20641;-87
2021/10/01 12:52:56;;;;;;;3.20;1.50;;;;;;;;;;4987856;28;20444;-86
2021/10/01 12:55:44;;;;;;;14.57;10.70;;;;;;;;;;5022937;28;20034;-90
2021/10/01 12:58:39;;;;;;;8.48;4.65;;;;;;;;;;5016059;28;20439;-91
2021/10/01 13:01:24;;;;;;;4.45;1.60;;;;;;;;;;5009843;28;20088;-90
2021/10/01 13:04:09;;;;;;;4.13;1.42;;;;;;;;;;5008478;28;20550;-91
2021/10/01 13:06:55;;;;;;;5.93;1.95;;;;;;;;;;5009817;28;20099;-90
2021/10/01 13:09:42;;;;;;;3.90;1.70;;;;;;;;;;4994492;28;20030;-92
2021/10/01 13:12:32;;;;;;;4.25;1.83;;;;;;;;;;5023524;28;20030;-88
2021/10/01 13:15:19;;;;;;;6.43;1.65;;;;;;;;;;5003007;28;20034;-86
2021/10/01 13:18:14;;;;;;;2.83;1.45;;;;;;;;;;5020936;28;20026;-85
2021/10/01 13:21:05;;;;;;;6.40;1.85;;;;;;;;;;4997813;28;20030;-89
2021/10/01 13:23:58;;;;;;;4.50;1.48;;;;;;;;;;4994770;28;20037;-89
2021/10/01 13:26:43;;;;;;;13.05;9.07;;;;;;;;;;4994572;28;20039;-90
2021/10/01 13:29:29;;;;;;;8.57;5.28;;;;;;;;;;5008721;28;20037;-88
2021/10/01 13:32:14;;;;;;;4.70;2.22;;;;;;;;;;5011493;28;20022;-90
2021/10/01 13:35:00;;;;;;;3.45;1.60;;;;;;;;;;4991449;28;20022;-88
2021/10/01 13:37:47;;;;;;;3.03;1.70;;;;;;;;;;5021533;28;20029;-89
2021/10/01 13:40:33;;;;;;;4.57;1.80;;;;;;;;;;5006505;28;20717;-89
2021/10/01 13:43:21;;;;;;;6.43;2.08;;;;;;;;;;5010748;28;20121;-88
2021/10/01 13:46:07;;;;;;;2.63;1.73;;;;;;;;;;5008756;28;20022;-86
2021/10/01 13:48:53;;;;;;;3.78;1.58;;;;;;;;;;4999739;28;20026;-88
2021/10/01 13:51:39;;;;;;;3.78;1.98;;;;;;;;;;5022200;28;20376;-88
2021/10/01 13:54:32;;;;;;;4.18;2.03;;;;;;;;;;5007734;28;20106;-88
2021/10/01 13:57:24;;;;;;;3.50;1.83;;;;;;;;;;5007870;28;20026;-86
2021/10/01 14:00:18;;;;;;;8.43;2.15;;;;;;;;;;5022041;28;20042;-89
2021/10/01 14:03:03;;;;;;;5.53;2.30;;;;;;;;;;5007983;28;20038;-91
2021/10/01 14:05:49;;;;;;;5.22;2.70;;;;;;;;;;5024296;28;20021;-89
2021/10/01 14:08:34;;;;;;;7.22;3.55;;;;;;;;;;5000771;28;20089;-92
2021/10/01 14:11:31;;;;;;;5.30;2.40;;;;;;;;;;5013522;28;20084;-92
2021/10/01 14:14:16;;;;;;;15.20;9.40;;;;;;;;;;5004965;28;20022;-88
2021/10/01 14:17:02;;;;;;;5.35;2.90;;;;;;;;;;5012109;28;20029;-91
2021/10/01 14:20:03;;;;;;;3.92;2.42;;;;;;;;;;5014814;28;20014;-93
2021/10/01 14:22:53;;;;;;;5.28;2.83;;;;;;;;;;5015098;28;20360;-86
2021/10/01 14:25:39;;;;;;;5.40;3.47;;;;;;;;;;5008847;28;20099;-90
2021/10/01 14:28:27;;;;;;;5.72;2.92;;;;;;;;;;5023537;28;20030;-90
2021/10/01 14:31:13;;;;;;;5.38;3.30;;;;;;;;;;5013674;28;20087;-90
2021/10/01 14:34:01;;;;;;;4.38;3.20;;;;;;;;;;5013776;28;20091;-91
2021/10/01 14:40:16;;;;;;;5.78;4.00;;;;;;;;;;4989693;28;20037;-93
2021/10/01 14:51:03;;;;;;;8.90;3.53;;;;;;;;;;5156616;22;20068;-88
2021/10/01 14:57:48;;;;;;;7.40;4.00;;;;;;;;;;4964516;28;20257;-92
2021/10/01 15:07:40;;;;;;;7.22;3.85;;;;;;;;;;4921491;29;20067;-90
2021/10/01 15:11:18;;;;;;;;;;;;;;;;;;;;;
2021/10/01 15:14:09;;;;;;;4.60;3.17;;;;;;;;;;5028726;28;20044;-90
2021/10/01 15:17:10;;;;;;;7.15;4.03;;;;;;;;;;5031991;28;20030;-88
2021/10/01 15:33:51;;;;;;;5.75;3.95;;;;;;;;;;5003395;28;20061;-82
2021/10/01 15:36:36;;;;;;;9.05;3.50;;;;;;;;;;5014417;28;20041;-82
2021/10/01 15:39:21;;;;;;;5.82;3.50;;;;;;;;;;5028707;28;20456;-84
2021/10/01 15:42:07;;;;;;;6.20;3.35;;;;;;;;;;5029432;28;20084;-90
2021/10/01 15:44:53;;;;;;;5.60;3.50;;;;;;;;;;5009310;28;20041;-91
2021/10/01 15:47:38;;;;;;;7.10;4.47;;;;;;;;;;5020581;28;20488;-90
2021/10/01 15:50:24;;;;;;;8.10;4.20;;;;;;;;;;5009934;28;20105;-92
2021/10/01 15:53:09;;;;;;;10.95;5.82;;;;;;;;;;5014045;28;20018;-89
2021/10/01 15:56:01;;;;;;;10.93;5.25;;;;;;;;;;5017069;28;20441;-92
2021/10/01 15:58:47;;;;;;;7.53;4.18;;;;;;;;;;5021311;28;20065;-92
2021/10/01 16:01:32;;;;;;;7.88;4.57;;;;;;;;;;5020599;28;20726;-91
2021/10/01 16:04:17;;;;;;;5.13;3.80;;;;;;;;;;5015359;28;20029;-89
2021/10/01 16:07:03;;;;;;;6.53;3.50;;;;;;;;;;5024159;28;20022;-86
2021/10/01 16:09:48;;;;;;;6.53;4.07;;;;;;;;;;5025677;28;20053;-87
2021/10/01 16:12:34;;;;;;;10.63;4.43;;;;;;;;;;5027578;28;20068;-87
2021/10/01 16:15:19;;;;;;;5.95;4.13;;;;;;;;;;5025377;28;20038;-85
2021/10/01 16:18:05;;;;;;;7.63;4.32;;;;;;;;;;5022433;28;20032;-85
2021/10/01 16:20:50;;;;;;;10.35;4.70;;;;;;;;;;5019691;28;20060;-87
2021/10/01 16:23:36;;;;;;;6.90;4.75;;;;;;;;;;5025658;28;20018;-84
2021/10/01 16:26:22;;;;;;;11.68;4.22;;;;;;;;;;5025014;28;20030;-85
2021/10/01 16:29:08;;;;;;;7.80;4.00;;;;;;;;;;5020954;28;20170;-83
2021/10/01 16:31:54;;;;;;;8.13;4.57;;;;;;;;;;5006053;28;20038;-87
2021/10/01 16:34:39;;;;;;;5.75;4.13;;;;;;;;;;5023408;28;20026;-85
2021/10/01 16:37:24;;;;;;;7.03;3.85;;;;;;;;;;5026210;28;20038;-84
2021/10/01 16:40:10;;;;;;;8.48;4.32;;;;;;;;;;5024000;28;20029;-88
2021/10/01 16:42:56;;;;;;;8.27;4.20;;;;;;;;;;5017443;28;20026;-86
2021/10/01 16:45:43;;;;;;;6.97;4.15;;;;;;;;;;5018799;28;20037;-87
2021/10/01 16:48:28;;;;;;;11.90;5.18;;;;;;;;;;5023060;28;20037;-88
2021/10/01 16:51:13;;;;;;;6.35;4.20;;;;;;;;;;5026197;28;20065;-87
2021/10/01 16:53:58;;;;;;;7.00;4.50;;;;;;;;;;5029100;28;20041;-88
2021/10/01 16:56:44;;;;;;;6.10;3.72;;;;;;;;;;5027570;28;20109;-86
2021/10/01 16:59:35;;;;;;;6.90;4.15;;;;;;;;;;5025559;28;20040;-87
2021/10/01 17:02:20;;;;;;;6.70;4.03;;;;;;;;;;5026176;28;20295;-86
2021/10/01 17:05:18;;;;;;;7.00;4.13;;;;;;;;;;5021904;28;20013;-84
2021/10/01 17:08:03;;;;;;;6.53;4.05;;;;;;;;;;5018654;28;20033;-86
2021/10/01 17:10:49;;;;;;;8.65;3.92;;;;;;;;;;5023534;28;20029;-85
2021/10/01 17:13:34;;;;;;;5.63;3.50;;;;;;;;;;5019795;28;20021;-84
2021/10/01 17:16:25;;;;;;;7.07;4.03;;;;;;;;;;5014154;28;20034;-86
2021/10/01 17:19:10;;;;;;;8.75;3.80;;;;;;;;;;5026052;28;20045;-85
2021/10/01 17:21:56;;;;;;;7.15;3.63;;;;;;;;;;5018607;28;20086;-89
2021/10/01 17:24:44;;;;;;;8.43;3.70;;;;;;;;;;5021949;28;20014;-89
2021/10/01 17:27:30;;;;;;;7.75;3.58;;;;;;;;;;5022970;28;20045;-90
2021/10/01 17:30:16;;;;;;;5.10;3.42;;;;;;;;;;5029213;28;20010;-90
2021/10/01 17:33:02;;;;;;;7.85;4.00;;;;;;;;;;5014638;28;20036;-91
2021/10/01 17:35:51;;;;;;;5.93;3.50;;;;;;;;;;5023816;28;20102;-85
2021/10/01 17:38:36;;;;;;;5.47;2.90;;;;;;;;;;5013742;28;20022;-86
2021/10/01 17:41:21;;;;;;;5.90;2.97;;;;;;;;;;5032023;28;20018;-91
2021/10/01 17:44:08;;;;;;;7.65;3.17;;;;;;;;;;5019093;28;20028;-87
2021/10/01 17:46:54;;;;;;;9.75;3.83;;;;;;;;;;5004612;28;20034;-89
2021/10/01 17:49:40;;;;;;;8.68;3.67;;;;;;;;;;5018272;28;20038;-88
2021/10/01 17:52:26;;;;;;;6.75;3.75;;;;;;;;;;5013450;28;20072;-84
2021/10/01 17:55:11;;;;;;;8.35;3.92;;;;;;;;;;5015738;28;20335;-85
2021/10/01 17:57:59;;;;;;;6.22;2.92;;;;;;;;;;5010121;28;20101;-84
2021/10/01 18:00:51;;;;;;;5.68;2.97;;;;;;;;;;5008625;28;20045;-87
2021/10/01 18:03:36;;;;;;;6.35;2.65;;;;;;;;;;5013224;28;20030;-86
2021/10/01 18:06:21;;;;;;;7.63;3.40;;;;;;;;;;5009670;28;20064;-84
2021/10/01 18:09:06;;;;;;;6.75;3.85;;;;;;;;;;5010357;28;20071;-85
2021/10/01 18:11:52;;;;;;;8.00;5.00;;;;;;;;;;5012280;28;20076;-86
2021/10/01 18:14:37;;;;;;;9.63;5.50;;;;;;;;;;5011522;28;20029;-85
2021/10/01 18:17:23;;;;;;;10.07;4.85;;;;;;;;;;5012191;28;20022;-85
2021/10/01 18:20:10;;;;;;;8.05;3.75;;;;;;;;;;5012052;28;20026;-86
2021/10/01 18:22:56;;;;;;;8.00;3.47;;;;;;;;;;5009873;28;20033;-86
2021/10/01 18:25:42;;;;;;;11.48;5.93;;;;;;;;;;5005187;28;20048;-85
2021/10/01 18:28:28;;;;;;;6.10;3.83;;;;;;;;;;5011148;28;20495;-85
2021/10/01 18:31:17;;;;;;;7.30;4.90;;;;;;;;;;5010071;28;20025;-84
2021/10/01 18:34:02;;;;;;;9.98;4.78;;;;;;;;;;5011278;28;20026;-84
2021/10/01 18:36:47;;;;;;;9.02;5.15;;;;;;;;;;5019573;28;20028;-85
2021/10/01 18:39:33;;;;;;;11.55;5.72;;;;;;;;;;5013447;28;20029;-85
2021/10/01 18:42:18;;;;;;;10.38;6.00;;;;;;;;;;5010361;28;20498;-86
2021/10/01 18:45:04;;;;;;;11.68;5.47;;;;;;;;;;5012344;28;20049;-85
2021/10/01 18:47:49;;;;;;;10.20;5.32;;;;;;;;;;5012158;28;20076;-84
2021/10/01 18:50:35;;;;;;;10.68;5.13;;;;;;;;;;5009308;28;20084;-86
2021/10/01 18:53:20;;;;;;;8.18;4.80;;;;;;;;;;5006935;28;20042;-87
2021/10/01 18:56:18;;;;;;;11.98;5.07;;;;;;;;;;5004888;28;20022;-85
2021/10/01 18:59:03;;;;;;;9.43;5.38;;;;;;;;;;5009972;28;20120;-85
2021/10/01 19:01:49;;;;;;;13.73;5.85;;;;;;;;;;5009279;28;20030;-83
2021/10/01 19:04:34;;;;;;;10.73;4.90;;;;;;;;;;5010133;28;20026;-85
2021/10/01 19:07:20;;;;;;;8.82;4.72;;;;;;;;;;5011546;28;20038;-85